createdAt,value
2018-04-25T00:01:36.947Z,90.90
2018-04-25T00:04:05.124Z,91.20
2018-04-25T00:06:33.275Z,92.30
2018-04-25T00:09:01.429Z,92.40
2018-04-25T00:11:32.692Z,91.60
2018-04-25T00:14:01.615Z,92.10
2018-04-25T00:16:30.928Z,91.40
2018-04-25T00:19:00.018Z,91.70
2018-04-25T00:21:28.292Z,91.40
2018-04-25T00:23:56.467Z,91.20
2018-04-25T00:26:24.633Z,91.90
2018-04-25T00:28:52.779Z,92.20
2018-04-25T00:31:21.792Z,92.70
2018-04-25T00:33:49.940Z,92.60
2018-04-25T00:36:18.085Z,92.60
2018-04-25T00:38:46.253Z,92.50
2018-04-25T00:41:14.512Z,92.00
2018-04-25T00:43:42.676Z,91.20
2018-04-25T00:46:10.828Z,91.80
2018-04-25T00:48:39.020Z,92.10
2018-04-25T00:51:08.221Z,91.50
2018-04-25T00:53:36.407Z,91.20
2018-04-25T00:56:04.583Z,91.00
2018-04-25T00:58:32.744Z,91.90
2018-04-25T01:01:01.336Z,91.80
2018-04-25T01:03:29.471Z,92.10
2018-04-25T01:05:58.767Z,91.90
2018-04-25T01:08:27.686Z,91.90
2018-04-25T01:10:59.125Z,91.20
2018-04-25T01:13:30.884Z,92.20
2018-04-25T01:15:59.045Z,91.70
2018-04-25T01:18:36.101Z,92.60
2018-04-25T01:21:04.327Z,92.90
2018-04-25T01:23:32.517Z,92.70
2018-04-25T01:26:06.409Z,93.30
2018-04-25T01:28:41.400Z,93.80
2018-04-25T01:31:17.401Z,93.60
2018-04-25T01:33:59.207Z,93.90
2018-04-25T01:36:34.746Z,93.80
2018-04-25T01:39:09.643Z,93.90
2018-04-25T01:41:37.859Z,94.40
2018-04-25T01:44:11.853Z,95.10
2018-04-25T01:46:40.017Z,95.10
2018-04-25T01:49:15.388Z,95.00
2018-04-25T01:51:55.448Z,94.10
2018-04-25T01:54:35.347Z,94.20
2018-04-25T01:57:16.024Z,94.50
2018-04-25T01:59:56.676Z,94.50
2018-04-25T02:02:24.383Z,94.10
2018-04-25T02:04:52.555Z,94.30
2018-04-25T02:07:20.721Z,95.20
2018-04-25T02:09:48.969Z,96.10
2018-04-25T02:12:24.406Z,96.30
2018-04-25T02:14:52.592Z,96.60
2018-04-25T02:17:21.506Z,97.00
2018-04-25T02:19:49.671Z,97.00
2018-04-25T02:22:18.686Z,96.80
2018-04-25T02:24:46.846Z,95.70
2018-04-25T02:27:15.015Z,95.90
2018-04-25T02:29:43.220Z,95.00
2018-04-25T02:32:17.601Z,95.30
2018-04-25T02:34:46.524Z,97.30
2018-04-25T02:37:14.684Z,97.00
2018-04-25T02:39:42.854Z,96.60
2018-04-25T02:42:14.933Z,97.00
2018-04-25T02:44:43.090Z,97.00
2018-04-25T02:47:14.975Z,97.20
2018-04-25T02:49:43.150Z,97.40
2018-04-25T02:52:17.115Z,97.60
2018-04-25T02:54:45.301Z,97.20
2018-04-25T02:57:13.456Z,97.50
2018-04-25T02:59:41.646Z,98.10
2018-04-25T03:02:11.001Z,98.30
2018-04-25T03:04:39.172Z,98.20
2018-04-25T03:07:07.332Z,97.80
2018-04-25T03:09:35.473Z,96.70
2018-04-25T03:12:03.663Z,96.90
2018-04-25T03:14:31.795Z,97.30
2018-04-25T03:16:59.957Z,96.60
2018-04-25T03:19:28.420Z,95.40
2018-04-25T03:21:56.559Z,95.80
2018-04-25T03:24:24.772Z,95.30
2018-04-25T03:26:52.944Z,94.40
2018-04-25T03:29:21.105Z,94.60
2018-04-25T03:31:53.156Z,94.60
2018-04-25T03:34:22.812Z,94.50
2018-04-25T03:36:50.973Z,94.80
2018-04-25T03:39:19.124Z,95.10
2018-04-25T03:41:47.302Z,94.40
2018-04-25T03:44:16.208Z,93.30
2018-04-25T03:49:14.577Z,93.20
2018-04-25T03:52:00.620Z,93.00
2018-04-25T03:54:28.801Z,93.00
2018-04-25T03:56:56.938Z,94.30
2018-04-25T03:59:25.856Z,94.20
2018-04-25T04:01:56.798Z,93.60
2018-04-25T04:04:25.014Z,93.80
2018-04-25T04:06:53.171Z,93.60
2018-04-25T04:09:22.088Z,94.40
2018-04-25T04:11:50.340Z,94.40
2018-04-25T04:14:18.479Z,93.60
2018-04-25T04:16:46.607Z,92.80
2018-04-25T04:19:14.758Z,93.10
2018-04-25T04:21:46.731Z,94.50
2018-04-25T04:24:14.908Z,94.30
2018-04-25T04:26:44.010Z,94.80
2018-04-25T04:29:12.163Z,93.40
2018-04-25T04:31:41.184Z,95.10
2018-04-25T04:34:09.342Z,94.90
2018-04-25T04:36:38.281Z,95.00
2018-04-25T04:39:06.424Z,95.20
2018-04-25T04:41:34.677Z,95.30
2018-04-25T04:44:03.603Z,95.90
2018-04-25T04:46:31.740Z,94.60
2018-04-25T04:49:00.655Z,95.50
2018-04-25T04:51:28.818Z,94.90
2018-04-25T04:53:56.979Z,94.10
2018-04-25T04:56:25.911Z,94.20
2018-04-25T04:58:54.114Z,94.20
2018-04-25T05:01:22.330Z,92.20
2018-04-25T05:03:50.495Z,92.60
2018-04-25T05:06:19.050Z,93.50
2018-04-25T05:08:47.225Z,93.50
2018-04-25T05:11:16.902Z,92.70
2018-04-25T05:13:45.436Z,92.50
2018-04-25T05:16:14.377Z,92.30
2018-04-25T05:18:43.680Z,92.20
2018-04-25T05:21:12.859Z,91.10
2018-04-25T05:23:41.044Z,90.70
2018-04-25T05:26:09.196Z,90.20
2018-04-25T05:28:37.365Z,90.30
2018-04-25T05:31:05.543Z,90.10
2018-04-25T05:33:33.715Z,90.10
2018-04-25T05:36:01.893Z,89.10
2018-04-25T05:38:30.076Z,88.60
2018-04-25T05:40:59.286Z,88.00
2018-04-25T05:43:27.440Z,88.60
2018-04-25T05:45:55.604Z,89.80
2018-04-25T05:48:23.765Z,89.50
2018-04-25T05:50:52.893Z,86.70
2018-04-25T05:53:21.043Z,85.20
2018-04-25T05:55:49.253Z,84.30
2018-04-25T05:58:17.400Z,83.40
2018-04-25T06:00:49.166Z,81.50
2018-04-25T06:03:20.918Z,79.70
2018-04-25T06:05:49.084Z,78.50
2018-04-25T06:08:18.075Z,77.20
2018-04-25T06:10:50.294Z,76.90
2018-04-25T06:13:18.446Z,74.60
2018-04-25T06:15:47.643Z,69.60
2018-04-25T06:18:15.802Z,66.20
2018-04-25T06:20:44.001Z,65.50
2018-04-25T06:23:12.677Z,65.90
2018-04-25T06:25:40.856Z,63.90
2018-04-25T06:28:09.227Z,60.90
2018-04-25T06:30:37.337Z,61.00
2018-04-25T06:33:05.490Z,62.00
2018-04-25T06:35:33.682Z,59.60
2018-04-25T06:38:01.861Z,58.90
2018-04-25T06:40:30.020Z,55.40
2018-04-25T06:42:58.177Z,56.40
2018-04-25T06:45:28.155Z,56.90
2018-04-25T06:47:56.307Z,55.30
2018-04-25T06:50:24.566Z,55.70
2018-04-25T06:52:53.359Z,56.00
2018-04-25T06:55:21.526Z,55.10
2018-04-25T06:57:49.691Z,53.10
2018-04-25T07:00:18.587Z,54.30
2018-04-25T07:02:46.738Z,54.60
2018-04-25T07:05:14.907Z,55.50
2018-04-25T07:07:43.086Z,52.00
2018-04-25T07:10:11.269Z,52.10
2018-04-25T07:12:39.408Z,53.00
2018-04-25T07:15:07.595Z,53.00
2018-04-25T07:17:35.771Z,51.80
2018-04-25T07:20:03.976Z,51.20
2018-04-25T07:22:32.154Z,49.90
2018-04-25T07:25:00.397Z,50.10
2018-04-25T07:27:29.353Z,46.10
2018-04-25T07:29:57.541Z,49.00
2018-04-25T07:32:26.807Z,48.20
2018-04-25T07:34:55.751Z,47.90
2018-04-25T07:37:24.728Z,44.20
2018-04-25T07:39:53.962Z,43.30
2018-04-25T07:42:25.612Z,42.70
2018-04-25T07:44:53.783Z,43.90
2018-04-25T07:47:25.196Z,44.00
2018-04-25T07:49:53.363Z,43.50
2018-04-25T07:52:22.536Z,43.70
2018-04-25T07:54:52.870Z,41.40
2018-04-25T07:57:21.034Z,42.40
2018-04-25T07:59:51.999Z,43.30
2018-04-25T08:02:21.179Z,43.70
2018-04-25T08:04:50.611Z,43.00
2018-04-25T08:07:29.542Z,44.40
2018-04-25T08:09:58.474Z,42.50
2018-04-25T08:12:43.476Z,43.40
2018-04-25T08:15:23.566Z,42.00
2018-04-25T08:18:10.324Z,39.70
2018-04-25T08:21:01.317Z,39.10
2018-04-25T08:23:29.585Z,39.50
2018-04-25T08:25:57.741Z,40.00
2018-04-25T08:28:26.739Z,37.40
2018-04-25T08:30:55.715Z,36.50
2018-04-25T08:33:24.732Z,34.70
2018-04-25T08:35:52.853Z,33.30
2018-04-25T08:38:21.025Z,32.00
2018-04-25T08:40:51.230Z,31.40
2018-04-25T08:43:19.399Z,32.80
2018-04-25T08:45:47.541Z,34.50
2018-04-25T08:48:15.715Z,32.20
2018-04-25T08:50:44.916Z,30.60
2018-04-25T08:53:13.084Z,33.40
2018-04-25T08:55:41.240Z,32.90
2018-04-25T08:58:09.394Z,31.50
2018-04-25T09:00:37.650Z,31.50
2018-04-25T09:03:05.822Z,30.50
2018-04-25T09:05:33.976Z,30.60
2018-04-25T09:08:02.149Z,30.50
2018-04-25T09:10:31.117Z,29.50
2018-04-25T09:12:59.291Z,29.40
2018-04-25T09:15:27.459Z,29.50
2018-04-25T09:17:55.620Z,29.40
2018-04-25T09:20:25.245Z,30.50
2018-04-25T09:22:53.389Z,30.40
2018-04-25T09:25:21.849Z,30.90
2018-04-25T09:27:50.001Z,30.20
2018-04-25T09:30:18.222Z,29.10
2018-04-25T09:32:46.388Z,29.90
2018-04-25T09:35:14.561Z,28.80
2018-04-25T09:37:42.734Z,29.40
2018-04-25T09:40:10.896Z,29.00
2018-04-25T09:42:39.076Z,28.60
2018-04-25T09:45:07.241Z,28.70
2018-04-25T09:47:35.503Z,28.90
2018-04-25T09:50:03.661Z,27.60
2018-04-25T09:52:35.526Z,28.20
2018-04-25T09:55:04.334Z,26.70
2018-04-25T09:57:34.328Z,26.60
2018-04-25T10:00:02.802Z,24.70
2018-04-25T10:02:33.311Z,23.90
2018-04-25T10:05:01.864Z,24.10
2018-04-25T10:07:30.036Z,23.50
2018-04-25T10:09:58.263Z,24.80
2018-04-25T10:12:26.537Z,22.50
2018-04-25T10:14:54.697Z,23.90
2018-04-25T10:17:24.672Z,23.70
2018-04-25T10:19:52.838Z,22.60
2018-04-25T10:22:21.068Z,21.90
2018-04-25T10:24:49.233Z,22.00
2018-04-25T10:27:17.388Z,22.60
2018-04-25T10:29:45.533Z,20.70
2018-04-25T10:32:14.234Z,20.10
2018-04-25T10:34:42.429Z,18.90
2018-04-25T10:37:10.588Z,18.80
2018-04-25T10:39:38.777Z,20.10
2018-04-25T10:42:07.111Z,20.20
2018-04-25T10:44:35.271Z,17.90
2018-04-25T10:47:03.449Z,18.20
2018-04-25T10:49:31.595Z,18.70
2018-04-25T10:52:00.602Z,18.70
2018-04-25T10:54:28.775Z,20.30
2018-04-25T10:56:56.930Z,20.30
2018-04-25T10:59:25.082Z,19.10
2018-04-25T11:01:53.287Z,17.20
2018-04-25T11:04:21.509Z,17.70
2018-04-25T11:06:49.635Z,15.80
2018-04-25T11:09:17.819Z,16.50
2018-04-25T11:11:46.419Z,15.80
2018-04-25T11:14:14.574Z,16.30
2018-04-25T11:16:42.745Z,17.10
2018-04-25T11:19:10.884Z,18.40
2018-04-25T11:21:39.106Z,18.90
2018-04-25T11:24:07.269Z,18.80
2018-04-25T11:26:35.494Z,18.70
2018-04-25T11:29:04.396Z,19.40
2018-04-25T11:31:33.428Z,20.00
2018-04-25T11:34:01.615Z,18.70
2018-04-25T11:36:29.814Z,20.00
2018-04-25T11:38:57.987Z,19.00
2018-04-25T11:41:30.843Z,20.60
2018-04-25T11:43:58.988Z,18.80
2018-04-25T11:46:27.925Z,20.80
2018-04-25T11:48:56.844Z,20.20
2018-04-25T11:51:26.692Z,20.10
2018-04-25T11:53:55.614Z,19.50
2018-04-25T11:56:24.621Z,19.10
2018-04-25T11:58:53.233Z,19.50
2018-04-25T12:01:21.430Z,19.20
2018-04-25T12:03:50.445Z,18.90
2018-04-25T12:06:18.693Z,19.10
2018-04-25T12:08:48.440Z,20.20
2018-04-25T12:11:16.754Z,19.40
2018-04-25T12:13:44.951Z,18.70
2018-04-25T12:16:14.069Z,19.70
2018-04-25T12:18:42.263Z,20.10
2018-04-25T12:21:10.940Z,20.90
2018-04-25T12:23:39.266Z,21.40
2018-04-25T12:26:08.027Z,21.40
2018-04-25T12:28:36.330Z,20.70
2018-04-25T12:31:04.692Z,20.00
2018-04-25T12:33:32.935Z,19.60
2018-04-25T12:36:01.897Z,19.00
2018-04-25T12:38:30.175Z,18.00
2018-04-25T12:41:02.112Z,16.60
2018-04-25T12:43:30.405Z,16.50
2018-04-25T12:45:58.667Z,17.30
2018-04-25T12:48:27.256Z,18.10
2018-04-25T12:50:55.953Z,15.90
2018-04-25T12:53:24.170Z,16.10
2018-04-25T12:55:53.012Z,16.10
2018-04-25T12:58:21.194Z,16.30
2018-04-25T13:00:50.837Z,15.80
2018-04-25T13:03:18.991Z,17.50
2018-04-25T13:05:47.925Z,16.80
2018-04-25T13:08:16.089Z,16.30
2018-04-25T13:10:44.361Z,15.50
2018-04-25T13:13:12.515Z,14.60
2018-04-25T13:15:41.425Z,14.10
2018-04-25T13:18:09.599Z,12.30
2018-04-25T13:20:37.884Z,12.40
2018-04-25T13:23:06.058Z,11.70
2018-04-25T13:25:34.226Z,12.20
2018-04-25T13:28:02.385Z,13.30
2018-04-25T13:30:34.459Z,12.80
2018-04-25T13:33:02.734Z,11.60
2018-04-25T13:35:30.911Z,12.10
2018-04-25T13:37:59.820Z,13.00
2018-04-25T13:40:27.990Z,11.70
2018-04-25T13:42:56.148Z,11.10
2018-04-25T13:45:24.309Z,10.40
2018-04-25T13:47:52.604Z,10.10
2018-04-25T13:50:20.797Z,10.90
2018-04-25T13:52:49.735Z,11.80
2018-04-25T13:55:17.885Z,11.80
2018-04-25T13:57:46.041Z,13.60
2018-04-25T14:00:14.219Z,12.20
2018-04-25T14:02:42.380Z,12.40
2018-04-25T14:05:10.524Z,12.20
2018-04-25T14:07:38.696Z,12.70
2018-04-25T14:10:06.863Z,12.20
2018-04-25T14:12:35.053Z,12.00
2018-04-25T14:15:03.281Z,12.40
2018-04-25T14:17:31.463Z,15.00
2018-04-25T14:19:59.666Z,14.40
2018-04-25T14:22:28.685Z,15.70
2018-04-25T14:24:56.848Z,15.10
2018-04-25T14:27:25.031Z,15.30
2018-04-25T14:29:54.183Z,15.10
2018-04-25T14:32:24.664Z,15.80
2018-04-25T14:34:52.828Z,14.80
2018-04-25T14:37:20.978Z,13.50
2018-04-25T14:39:49.585Z,12.40
2018-04-25T14:42:18.777Z,11.50
2018-04-25T14:44:46.963Z,11.70
2018-04-25T14:47:15.923Z,14.10
2018-04-25T14:49:44.101Z,14.60
2018-04-25T14:52:13.123Z,17.10
2018-04-25T14:54:41.449Z,17.10
2018-04-25T14:57:09.580Z,17.70
2018-04-25T14:59:37.736Z,18.20
2018-04-25T15:02:07.245Z,18.00
2018-04-25T15:04:35.433Z,18.90
2018-04-25T15:07:04.375Z,19.50
2018-04-25T15:09:32.525Z,18.80
2018-04-25T15:12:00.746Z,19.60
2018-04-25T15:14:28.906Z,18.80
2018-04-25T15:16:57.070Z,18.70
2018-04-25T15:19:25.254Z,18.60
2018-04-25T15:21:55.341Z,20.00
2018-04-25T15:24:23.518Z,19.50
2018-04-25T15:26:51.682Z,19.70
2018-04-25T15:29:19.860Z,19.50
2018-04-25T15:31:48.024Z,20.00
2018-04-25T15:34:16.189Z,19.60
2018-04-25T15:36:44.355Z,19.80
2018-04-25T15:39:12.575Z,19.70
2018-04-25T15:41:41.724Z,20.10
2018-04-25T15:44:09.901Z,19.50
2018-04-25T15:46:38.093Z,19.80
2018-04-25T15:49:06.285Z,20.30
2018-04-25T15:51:36.468Z,19.70
2018-04-25T15:54:04.629Z,19.20
2018-04-25T15:56:32.802Z,19.80
2018-04-25T15:59:00.971Z,19.70
2018-04-25T16:01:30.180Z,19.30
2018-04-25T16:03:58.561Z,19.50
2018-04-25T16:06:26.748Z,19.70
2018-04-25T16:08:54.909Z,19.70
2018-04-25T16:11:23.105Z,19.80
2018-04-25T16:13:51.307Z,20.00
2018-04-25T16:16:19.497Z,20.10
2018-04-25T16:18:47.694Z,20.10
2018-04-25T16:21:15.998Z,20.70
2018-04-25T16:23:44.159Z,20.60
2018-04-25T16:26:12.326Z,21.30
2018-04-25T16:28:40.505Z,21.30
2018-04-25T16:31:08.688Z,21.90
2018-04-25T16:33:36.851Z,23.40
2018-04-25T16:36:05.069Z,24.80
2018-04-25T16:38:33.297Z,25.30
2018-04-25T16:41:01.435Z,26.10
2018-04-25T16:43:29.599Z,26.60
2018-04-25T16:45:57.764Z,26.80
2018-04-25T16:48:25.925Z,26.80
2018-04-25T16:50:54.072Z,27.30
2018-04-25T16:53:22.232Z,27.60
2018-04-25T16:55:51.154Z,28.40
2018-04-25T16:58:19.326Z,28.40
2018-04-25T17:00:47.583Z,29.10
2018-04-25T17:03:16.089Z,29.40
2018-04-25T17:05:44.253Z,29.60
2018-04-25T17:08:12.812Z,29.80
2018-04-25T17:10:41.107Z,28.70
2018-04-25T17:13:09.287Z,28.10
2018-04-25T17:15:37.445Z,29.20
2018-04-25T17:18:06.037Z,29.80
2018-04-25T17:20:35.946Z,31.30
2018-04-25T17:23:04.134Z,30.00
2018-04-25T17:25:33.105Z,30.10
2018-04-25T17:28:02.026Z,30.80
2018-04-25T17:30:32.297Z,30.60
2018-04-25T17:33:00.457Z,30.60
2018-04-25T17:35:28.622Z,32.00
2018-04-25T17:37:56.765Z,31.70
2018-04-25T17:40:26.303Z,33.00
2018-04-25T17:42:54.457Z,32.50
2018-04-25T17:45:23.002Z,32.70
2018-04-25T17:47:51.917Z,33.20
2018-04-25T17:50:22.854Z,33.40
2018-04-25T17:52:51.016Z,35.20
2018-04-25T17:55:19.569Z,35.40
2018-04-25T17:57:47.728Z,36.30
2018-04-25T18:00:15.907Z,37.30
2018-04-25T18:02:44.078Z,37.40
2018-04-25T18:05:14.179Z,38.10
2018-04-25T18:07:42.359Z,37.40
2018-04-25T18:10:10.523Z,38.00
2018-04-25T18:12:38.735Z,38.70
2018-04-25T18:15:06.896Z,39.00
2018-04-25T18:17:35.152Z,37.60
2018-04-25T18:20:03.305Z,38.40
2018-04-25T18:22:31.479Z,38.50
2018-04-25T18:24:59.642Z,35.80
2018-04-25T18:27:27.813Z,35.90
2018-04-25T18:29:55.965Z,36.10
2018-04-25T18:32:29.200Z,36.10
2018-04-25T18:34:57.476Z,36.30
2018-04-25T18:37:25.651Z,38.40
2018-04-25T18:39:53.807Z,38.30
2018-04-25T18:42:22.092Z,38.40
2018-04-25T18:44:50.254Z,39.10
2018-04-25T18:47:19.890Z,39.90
2018-04-25T18:49:48.036Z,40.10
2018-04-25T18:52:18.169Z,40.50
2018-04-25T18:54:46.334Z,41.30
2018-04-25T18:57:14.502Z,42.20
2018-04-25T18:59:42.675Z,42.20
2018-04-25T19:02:11.605Z,42.40
2018-04-25T19:04:40.587Z,42.60
2018-04-25T19:07:09.063Z,42.40
2018-04-25T19:09:37.225Z,43.10
2018-04-25T19:12:06.535Z,43.20
2018-04-25T19:14:34.920Z,43.10
2018-04-25T19:17:03.091Z,43.10
2018-04-25T19:19:31.301Z,43.40
2018-04-25T19:21:59.449Z,44.50
2018-04-25T19:24:27.614Z,43.80
2018-04-25T19:26:57.488Z,43.40
2018-04-25T19:29:26.387Z,44.30
2018-04-25T19:31:55.390Z,44.50
2018-04-25T19:34:23.548Z,44.30
2018-04-25T19:36:52.489Z,45.40
2018-04-25T19:39:20.643Z,45.30
2018-04-25T19:41:52.796Z,45.60
2018-04-25T19:44:21.077Z,45.40
2018-04-25T19:46:49.214Z,45.90
2018-04-25T19:49:17.372Z,46.80
2018-04-25T19:51:53.759Z,46.30
2018-04-25T19:54:22.607Z,45.80
2018-04-25T19:56:52.803Z,46.30
2018-04-25T19:59:21.945Z,46.70
2018-04-25T20:01:50.097Z,46.20
2018-04-25T20:04:18.263Z,45.90
2018-04-25T20:06:46.418Z,46.10
2018-04-25T20:09:14.600Z,45.70
2018-04-25T20:11:42.755Z,46.30
2018-04-25T20:14:10.964Z,46.50
2018-04-25T20:16:39.120Z,46.50
2018-04-25T20:19:07.288Z,46.50
2018-04-25T20:21:35.471Z,46.50
2018-04-25T20:24:03.626Z,45.90
2018-04-25T20:26:32.577Z,46.60
2018-04-25T20:29:00.784Z,46.20
2018-04-25T20:31:29.810Z,47.50
2018-04-25T20:33:58.025Z,47.10
2018-04-25T20:36:26.184Z,46.60
2018-04-25T20:38:54.331Z,47.00
2018-04-25T20:41:22.483Z,47.60
2018-04-25T20:43:51.592Z,47.00
2018-04-25T20:46:19.781Z,46.30
2018-04-25T20:48:47.939Z,47.10
2018-04-25T20:51:16.292Z,47.10
2018-04-25T20:53:44.456Z,46.10
2018-04-25T20:56:12.632Z,44.40
2018-04-25T20:58:40.795Z,43.30
2018-04-25T21:01:12.259Z,42.80
2018-04-25T21:03:41.554Z,42.80
2018-04-25T21:06:09.781Z,42.70
2018-04-25T21:08:37.965Z,42.60
2018-04-25T21:11:09.496Z,41.50
2018-04-25T21:13:38.081Z,40.40
2018-04-25T21:16:06.328Z,40.50
2018-04-25T21:18:34.478Z,41.00
2018-04-25T21:21:02.733Z,39.80
2018-04-25T21:23:30.905Z,40.30
2018-04-25T21:25:59.076Z,39.80
2018-04-25T21:28:27.652Z,39.30
2018-04-25T21:30:56.724Z,38.40
2018-04-25T21:33:25.648Z,40.10
2018-04-25T21:35:53.921Z,38.80
2018-04-25T21:38:22.165Z,39.10
2018-04-25T21:40:50.357Z,39.40
2018-04-25T21:43:18.524Z,39.30
2018-04-25T21:45:47.100Z,40.00
2018-04-25T21:48:17.810Z,40.30
2018-04-25T21:50:48.001Z,40.00
2018-04-25T21:53:16.976Z,42.40
2018-04-25T21:55:49.017Z,41.70
2018-04-25T21:58:18.218Z,42.10
2018-04-25T22:00:50.923Z,43.50
2018-04-25T22:03:21.110Z,43.50
2018-04-25T22:05:50.212Z,43.90
2018-04-25T22:08:18.372Z,43.50
2018-04-25T22:10:46.795Z,44.10
2018-04-25T22:13:16.451Z,44.00
2018-04-25T22:15:44.615Z,44.50
2018-04-25T22:18:14.553Z,44.40
2018-04-25T22:20:43.894Z,45.00
2018-04-25T22:23:12.960Z,44.10
2018-04-25T22:25:41.451Z,44.00
2018-04-25T22:28:09.949Z,45.60
2018-04-25T22:30:39.127Z,46.90
2018-04-25T22:33:07.279Z,49.40
2018-04-25T22:35:35.565Z,50.70
2018-04-25T22:38:03.733Z,51.90
2018-04-25T22:40:33.801Z,56.60
2018-04-25T22:43:01.959Z,56.10
2018-04-25T22:45:30.100Z,59.10
2018-04-25T22:47:58.289Z,59.50
2018-04-25T22:50:28.149Z,61.40
2018-04-25T22:52:56.353Z,64.20
2018-04-25T22:55:24.508Z,66.70
2018-04-25T22:57:52.730Z,70.20
2018-04-25T23:00:21.536Z,73.00
2018-04-25T23:02:59.811Z,80.00
2018-04-25T23:05:27.966Z,80.70
2018-04-25T23:07:57.715Z,83.30
2018-04-25T23:10:25.908Z,87.00
2018-04-25T23:12:54.332Z,88.10
2018-04-25T23:15:23.249Z,87.90
2018-04-25T23:17:51.407Z,89.10
2018-04-25T23:20:20.156Z,87.30
2018-04-25T23:22:48.310Z,89.10
2018-04-25T23:25:16.512Z,90.40
2018-04-25T23:27:44.743Z,91.90
2018-04-25T23:30:12.895Z,89.80
2018-04-25T23:32:42.404Z,90.30
2018-04-25T23:35:11.741Z,90.00
2018-04-25T23:37:39.905Z,90.00
2018-04-25T23:40:08.079Z,87.40
2018-04-25T23:42:36.265Z,86.30
2018-04-25T23:45:04.432Z,84.40
2018-04-25T23:47:33.306Z,84.40
2018-04-25T23:50:02.742Z,86.60
2018-04-25T23:52:30.896Z,85.40
2018-04-25T23:54:59.067Z,87.30
2018-04-25T23:57:28.911Z,90.70
2018-04-25T23:59:59.924Z,90.50
